createdAt,value
2023-01-22T00:01:08.747Z,66.09
2023-01-22T00:03:37.108Z,65.89
2023-01-22T00:06:04.833Z,65.86
2023-01-22T00:08:32.195Z,65.93
2023-01-22T00:10:59.072Z,65.68
2023-01-22T00:13:27.613Z,65.58
2023-01-22T00:15:57.240Z,65.78
2023-01-22T00:18:24.273Z,65.85
2023-01-22T00:20:53.747Z,65.66
2023-01-22T00:23:21.241Z,65.96
2023-01-22T00:25:48.135Z,65.97
2023-01-22T00:28:16.807Z,65.75
2023-01-22T00:30:44.018Z,65.58
2023-01-22T00:33:11.348Z,65.62
2023-01-22T00:35:38.373Z,65.44
2023-01-22T00:38:06.350Z,65.66
2023-01-22T00:40:33.330Z,65.73
2023-01-22T00:43:00.221Z,65.81
2023-01-22T00:45:27.142Z,65.75
2023-01-22T00:47:54.059Z,65.36
2023-01-22T00:50:21.009Z,65.81
2023-01-22T00:52:47.912Z,65.68
2023-01-22T00:55:14.828Z,65.84
2023-01-22T00:57:41.739Z,65.99
2023-01-22T01:00:10.049Z,66.25
2023-01-22T01:03:00.139Z,66.25
2023-01-22T01:05:27.097Z,66.46
2023-01-22T01:07:53.982Z,66.19
2023-01-22T01:10:21.041Z,65.89
2023-01-22T01:12:47.975Z,66.22
2023-01-22T01:15:14.870Z,66.54
2023-01-22T01:17:41.803Z,66.15
2023-01-22T01:20:09.849Z,66.20
2023-01-22T01:22:36.757Z,65.93
2023-01-22T01:25:05.034Z,65.85
2023-01-22T01:27:32.484Z,65.86
2023-01-22T01:29:59.768Z,65.32
2023-01-22T01:32:26.731Z,65.63
2023-01-22T01:34:53.819Z,65.51
2023-01-22T01:37:20.755Z,65.11
2023-01-22T01:39:51.807Z,65.30
2023-01-22T01:42:31.813Z,65.16
2023-01-22T01:45:28.720Z,65.32
2023-01-22T01:48:24.727Z,65.33
2023-01-22T01:51:20.312Z,66.12
2023-01-22T01:53:50.115Z,65.59
2023-01-22T01:56:26.973Z,65.60
2023-01-22T01:58:59.336Z,65.75
2023-01-22T02:01:27.879Z,65.83
2023-01-22T02:03:55.550Z,65.76
2023-01-22T02:06:22.482Z,65.97
2023-01-22T02:08:51.511Z,65.76
2023-01-22T02:11:19.601Z,65.92
2023-01-22T02:13:55.681Z,65.81
2023-01-22T02:16:22.688Z,65.43
2023-01-22T02:18:50.063Z,65.26
2023-01-22T02:21:38.123Z,65.05
2023-01-22T02:24:09.317Z,65.13
2023-01-22T02:26:38.379Z,65.04
2023-01-22T02:29:08.005Z,65.22
2023-01-22T02:31:37.512Z,65.09
2023-01-22T02:34:06.629Z,65.02
2023-01-22T02:36:37.227Z,65.30
2023-01-22T02:39:04.432Z,65.08
2023-01-22T02:41:32.789Z,64.72
2023-01-22T02:44:00.405Z,64.47
2023-01-22T02:46:27.439Z,64.24
2023-01-22T02:48:54.436Z,64.46
2023-01-22T02:51:22.207Z,64.16
2023-01-22T02:53:50.264Z,64.13
2023-01-22T02:56:17.815Z,64.47
2023-01-22T02:58:45.464Z,64.45
2023-01-22T03:01:24.591Z,64.11
2023-01-22T03:04:12.888Z,64.52
2023-01-22T03:06:46.427Z,64.49
2023-01-22T03:09:17.077Z,64.29
2023-01-22T03:11:46.507Z,64.24
2023-01-22T03:14:38.262Z,64.30
2023-01-22T03:17:25.904Z,64.61
2023-01-22T03:20:12.080Z,64.67
2023-01-22T03:22:38.991Z,64.99
2023-01-22T03:25:06.351Z,64.57
2023-01-22T03:27:33.490Z,64.28
2023-01-22T03:30:00.511Z,64.47
2023-01-22T03:32:32.678Z,64.32
2023-01-22T03:34:59.781Z,64.69
2023-01-22T03:37:32.662Z,64.60
2023-01-22T03:40:00.386Z,64.76
2023-01-22T03:42:35.152Z,64.74
2023-01-22T03:45:02.074Z,64.96
2023-01-22T03:47:29.137Z,64.54
2023-01-22T03:49:56.024Z,64.76
2023-01-22T03:52:23.050Z,64.69
2023-01-22T03:54:49.982Z,64.60
2023-01-22T03:57:17.600Z,64.53
2023-01-22T03:59:44.806Z,64.04
2023-01-22T04:02:12.353Z,64.44
2023-01-22T04:04:52.370Z,64.11
2023-01-22T04:07:19.471Z,64.42
2023-01-22T04:09:47.529Z,64.23
2023-01-22T04:12:14.528Z,64.51
2023-01-22T04:14:42.638Z,64.38
2023-01-22T04:17:09.756Z,64.61
2023-01-22T04:19:47.672Z,64.53
2023-01-22T04:22:32.994Z,64.45
2023-01-22T04:25:00.732Z,64.34
2023-01-22T04:27:27.610Z,64.43
2023-01-22T04:29:55.833Z,64.48
2023-01-22T04:32:24.271Z,64.72
2023-01-22T04:35:12.840Z,64.63
2023-01-22T04:37:50.141Z,64.90
2023-01-22T04:40:18.012Z,65.37
2023-01-22T04:42:46.392Z,65.16
2023-01-22T04:45:13.729Z,65.13
2023-01-22T04:47:44.149Z,65.40
2023-01-22T04:50:18.639Z,65.33
2023-01-22T04:52:46.683Z,65.54
2023-01-22T04:55:14.007Z,65.43
2023-01-22T04:57:50.210Z,65.47
2023-01-22T05:00:18.659Z,65.46
2023-01-22T05:02:45.995Z,65.50
2023-01-22T05:05:13.112Z,65.16
2023-01-22T05:07:40.028Z,65.27
2023-01-22T05:10:08.659Z,65.09
2023-01-22T05:12:35.827Z,65.17
2023-01-22T05:15:05.507Z,65.01
2023-01-22T05:17:35.224Z,65.15
2023-01-22T05:20:02.778Z,65.41
2023-01-22T05:22:29.731Z,65.40
2023-01-22T05:24:58.657Z,65.55
2023-01-22T05:27:26.622Z,65.54
2023-01-22T05:30:01.226Z,66.13
2023-01-22T05:32:39.225Z,65.83
2023-01-22T05:35:07.368Z,65.98
2023-01-22T05:37:38.203Z,66.21
2023-01-22T05:40:06.849Z,66.14
2023-01-22T05:42:35.655Z,66.36
2023-01-22T05:45:04.974Z,66.30
2023-01-22T05:47:35.215Z,66.57
2023-01-22T05:50:28.553Z,66.38
2023-01-22T05:53:03.273Z,66.25
2023-01-22T05:55:30.379Z,66.40
2023-01-22T05:57:57.260Z,66.08
2023-01-22T06:00:24.913Z,66.42
2023-01-22T06:02:59.835Z,66.43
2023-01-22T06:05:28.859Z,66.17
2023-01-22T06:08:03.812Z,66.61
2023-01-22T06:10:39.064Z,66.47
2023-01-22T06:13:06.004Z,66.38
2023-01-22T06:15:33.500Z,66.41
2023-01-22T06:18:13.119Z,66.49
2023-01-22T06:20:40.027Z,66.49
2023-01-22T06:23:08.472Z,66.71
2023-01-22T06:25:35.463Z,66.16
2023-01-22T06:28:11.242Z,66.46
2023-01-22T06:30:39.785Z,66.28
2023-01-22T06:33:06.884Z,65.78
2023-01-22T06:35:33.802Z,66.16
2023-01-22T06:38:00.959Z,66.20
2023-01-22T06:40:31.929Z,65.97
2023-01-22T06:43:02.633Z,66.10
2023-01-22T06:45:30.155Z,66.45
2023-01-22T06:48:02.773Z,66.20
2023-01-22T06:50:29.660Z,65.90
2023-01-22T06:52:56.522Z,65.72
2023-01-22T06:55:23.406Z,66.19
2023-01-22T06:57:50.395Z,65.84
2023-01-22T07:00:18.345Z,65.91
2023-01-22T07:02:45.466Z,65.92
2023-01-22T07:05:12.437Z,65.34
2023-01-22T07:07:39.315Z,65.94
2023-01-22T07:10:06.637Z,65.66
2023-01-22T07:12:33.872Z,65.71
2023-01-22T07:15:00.773Z,65.62
2023-01-22T07:17:27.677Z,65.55
2023-01-22T07:19:54.549Z,65.55
2023-01-22T07:22:21.439Z,64.99
2023-01-22T07:24:48.330Z,65.14
2023-01-22T07:27:15.218Z,65.14
2023-01-22T07:29:42.099Z,64.87
2023-01-22T07:32:08.984Z,64.88
2023-01-22T07:34:37.379Z,65.15
2023-01-22T07:37:04.466Z,65.00
2023-01-22T07:39:31.354Z,64.63
2023-01-22T07:42:01.170Z,64.59
2023-01-22T07:44:30.672Z,64.75
2023-01-22T07:46:57.716Z,64.52
2023-01-22T07:49:24.603Z,64.73
2023-01-22T07:51:51.496Z,64.85
2023-01-22T07:54:20.036Z,64.46
2023-01-22T07:56:46.978Z,64.27
2023-01-22T07:59:13.871Z,63.94
2023-01-22T08:01:40.824Z,64.15
2023-01-22T08:04:07.746Z,64.07
2023-01-22T08:06:34.660Z,64.25
2023-01-22T08:09:01.613Z,64.21
2023-01-22T08:11:28.982Z,63.82
2023-01-22T08:13:55.859Z,63.99
2023-01-22T08:16:22.805Z,64.11
2023-01-22T08:18:49.692Z,64.27
2023-01-22T08:21:16.563Z,63.92
2023-01-22T08:23:46.650Z,64.27
2023-01-22T08:26:15.111Z,64.12
2023-01-22T08:28:41.991Z,63.92
2023-01-22T08:31:16.470Z,63.67
2023-01-22T08:33:49.774Z,63.54
2023-01-22T08:36:16.665Z,63.60
2023-01-22T08:38:43.548Z,63.63
2023-01-22T08:41:10.449Z,63.67
2023-01-22T08:43:37.336Z,63.73
2023-01-22T08:46:04.335Z,64.08
2023-01-22T08:48:31.220Z,63.85
2023-01-22T08:51:00.903Z,63.75
2023-01-22T08:53:28.392Z,64.02
2023-01-22T08:55:55.303Z,64.13
2023-01-22T08:58:24.257Z,64.06
2023-01-22T09:00:51.595Z,64.19
2023-01-22T09:03:18.494Z,64.10
2023-01-22T09:05:45.446Z,64.15
2023-01-22T09:08:12.486Z,63.95
2023-01-22T09:10:40.032Z,63.89
2023-01-22T09:13:06.900Z,63.89
2023-01-22T09:15:33.788Z,64.11
2023-01-22T09:18:00.691Z,63.90
2023-01-22T09:20:27.901Z,63.97
2023-01-22T09:22:54.778Z,64.57
2023-01-22T09:25:21.950Z,64.10
2023-01-22T09:27:48.844Z,64.12
2023-01-22T09:30:16.438Z,63.71
2023-01-22T09:32:43.488Z,63.76
2023-01-22T09:35:10.561Z,63.46
2023-01-22T09:37:37.500Z,63.45
2023-01-22T09:40:04.848Z,63.09
2023-01-22T09:42:37.194Z,63.38
2023-01-22T09:45:12.322Z,63.44
2023-01-22T09:47:51.382Z,62.97
2023-01-22T09:50:25.604Z,63.05
2023-01-22T09:52:55.213Z,62.89
2023-01-22T09:55:30.755Z,62.78
2023-01-22T09:58:01.890Z,62.66
2023-01-22T10:00:54.484Z,62.67
2023-01-22T10:03:38.457Z,62.75
2023-01-22T10:06:18.789Z,62.43
2023-01-22T10:09:07.936Z,62.68
2023-01-22T10:11:36.608Z,62.48
2023-01-22T10:14:09.520Z,62.31
2023-01-22T10:16:37.547Z,62.46
2023-01-22T10:19:19.889Z,62.20
2023-01-22T10:21:52.449Z,62.46
2023-01-22T10:24:19.350Z,62.54
2023-01-22T10:26:54.839Z,62.47
2023-01-22T10:29:33.581Z,62.26
2023-01-22T10:32:22.155Z,62.04
2023-01-22T10:35:19.992Z,62.22
2023-01-22T10:37:55.879Z,62.32
2023-01-22T10:40:38.187Z,62.03
2023-01-22T10:43:14.354Z,62.19
2023-01-22T10:45:59.663Z,61.86
2023-01-22T10:48:26.930Z,61.99
2023-01-22T10:51:15.755Z,62.15
2023-01-22T10:53:53.651Z,61.81
2023-01-22T10:56:31.646Z,61.57
2023-01-22T10:59:02.958Z,61.77
2023-01-22T11:01:36.919Z,61.53
2023-01-22T11:04:25.909Z,61.23
2023-01-22T11:07:30.988Z,61.50
2023-01-22T11:10:21.613Z,61.30
2023-01-22T11:12:57.060Z,61.16
2023-01-22T11:15:44.717Z,61.15
2023-01-22T11:18:40.875Z,61.04
2023-01-22T11:21:22.771Z,60.95
2023-01-22T11:24:12.025Z,61.28
2023-01-22T11:27:14.579Z,61.42
2023-01-22T11:29:57.065Z,61.16
2023-01-22T11:32:59.265Z,61.05
2023-01-22T11:35:52.351Z,61.36
2023-01-22T11:38:40.678Z,61.00
2023-01-22T11:41:40.676Z,60.52
2023-01-22T11:44:49.097Z,60.75
2023-01-22T11:47:57.651Z,60.95
2023-01-22T11:50:46.995Z,60.77
2023-01-22T11:53:40.445Z,60.89
2023-01-22T11:56:29.123Z,60.78
2023-01-22T11:59:06.773Z,60.62
2023-01-22T12:02:14.188Z,60.36
2023-01-22T12:05:14.346Z,60.54
2023-01-22T12:08:05.614Z,60.50
2023-01-22T12:11:05.929Z,60.55
2023-01-22T12:14:10.622Z,60.52
2023-01-22T12:17:25.415Z,60.19
2023-01-22T12:20:08.280Z,60.36
2023-01-22T12:22:46.361Z,60.44
2023-01-22T12:25:52.745Z,60.15
2023-01-22T12:28:36.186Z,60.20
2023-01-22T12:31:12.783Z,60.61
2023-01-22T12:33:42.199Z,60.24
2023-01-22T12:36:16.498Z,60.14
2023-01-22T12:39:14.377Z,59.99
2023-01-22T12:41:52.605Z,59.76
2023-01-22T12:44:38.074Z,59.86
2023-01-22T12:47:19.616Z,59.88
2023-01-22T12:49:53.028Z,60.09
2023-01-22T12:52:39.523Z,59.96
2023-01-22T12:55:31.572Z,59.51
2023-01-22T12:57:58.784Z,59.47
2023-01-22T13:00:43.521Z,60.05
2023-01-22T13:03:32.141Z,59.63
2023-01-22T13:06:02.724Z,59.66
2023-01-22T13:08:44.952Z,59.65
2023-01-22T13:11:35.445Z,60.13
2023-01-22T13:14:28.475Z,60.00
2023-01-22T13:17:00.508Z,59.80
2023-01-22T13:19:35.855Z,59.66
2023-01-22T13:22:03.586Z,59.72
2023-01-22T13:24:30.468Z,59.50
2023-01-22T13:27:01.069Z,59.51
2023-01-22T13:29:37.378Z,59.40
2023-01-22T13:32:16.354Z,59.66
2023-01-22T13:34:43.307Z,59.80
2023-01-22T13:37:25.342Z,59.88
2023-01-22T13:39:52.437Z,59.78
2023-01-22T13:42:19.423Z,59.72
2023-01-22T13:44:51.633Z,59.65
2023-01-22T13:47:32.913Z,59.29
2023-01-22T13:50:00.164Z,59.89
2023-01-22T13:52:28.564Z,59.69
2023-01-22T13:55:05.312Z,59.40
2023-01-22T13:57:32.193Z,59.50
2023-01-22T14:00:01.465Z,59.77
2023-01-22T14:02:37.357Z,59.50
2023-01-22T14:05:04.733Z,59.40
2023-01-22T14:07:37.956Z,59.88
2023-01-22T14:10:19.923Z,59.44
2023-01-22T14:12:58.163Z,59.21
2023-01-22T14:15:25.041Z,59.20
2023-01-22T14:17:51.949Z,59.38
2023-01-22T14:20:19.435Z,59.01
2023-01-22T14:22:47.473Z,59.40
2023-01-22T14:25:14.386Z,59.30
2023-01-22T14:27:48.427Z,59.27
2023-01-22T14:30:19.256Z,59.31
2023-01-22T14:32:46.513Z,59.10
2023-01-22T14:35:23.388Z,59.32
2023-01-22T14:37:52.224Z,59.42
2023-01-22T14:40:22.063Z,59.52
2023-01-22T14:42:49.625Z,59.25
2023-01-22T14:45:18.851Z,59.19
2023-01-22T14:47:51.516Z,59.36
2023-01-22T14:50:19.308Z,59.24
2023-01-22T14:52:47.553Z,59.24
2023-01-22T14:55:14.747Z,59.57
2023-01-22T14:57:41.632Z,59.54
2023-01-22T15:00:11.039Z,59.65
2023-01-22T15:02:39.877Z,59.32
2023-01-22T15:05:07.724Z,59.41
2023-01-22T15:07:35.478Z,59.90
2023-01-22T15:10:04.147Z,59.99
2023-01-22T15:12:31.079Z,59.82
2023-01-22T15:14:58.264Z,59.91
2023-01-22T15:17:25.222Z,59.83
2023-01-22T15:19:52.090Z,59.99
2023-01-22T15:22:18.981Z,60.18
2023-01-22T15:24:45.873Z,59.92
2023-01-22T15:27:18.315Z,59.67
2023-01-22T15:29:46.351Z,59.86
2023-01-22T15:32:13.671Z,60.10
2023-01-22T15:34:40.764Z,60.15
2023-01-22T15:37:08.137Z,60.23
2023-01-22T15:39:35.176Z,60.08
2023-01-22T15:42:02.086Z,60.31
2023-01-22T15:44:28.996Z,60.16
2023-01-22T15:46:58.752Z,59.92
2023-01-22T15:49:25.663Z,60.29
2023-01-22T15:51:52.911Z,60.42
2023-01-22T15:54:19.832Z,60.17
2023-01-22T15:56:46.775Z,60.10
2023-01-22T15:59:13.759Z,60.14
2023-01-22T16:01:40.842Z,59.95
2023-01-22T16:04:08.524Z,60.24
2023-01-22T16:06:36.007Z,59.83
2023-01-22T16:09:06.027Z,60.04
2023-01-22T16:11:33.568Z,59.86
2023-01-22T16:14:01.129Z,60.17
2023-01-22T16:16:34.838Z,60.22
2023-01-22T16:19:05.969Z,60.48
2023-01-22T16:21:33.428Z,60.12
2023-01-22T16:24:02.077Z,60.40
2023-01-22T16:26:34.822Z,60.09
2023-01-22T16:29:04.716Z,60.36
2023-01-22T16:31:35.048Z,60.44
2023-01-22T16:34:10.883Z,60.43
2023-01-22T16:36:38.464Z,60.39
2023-01-22T16:39:06.277Z,60.38
2023-01-22T16:41:36.542Z,60.75
2023-01-22T16:44:17.063Z,60.61
2023-01-22T16:46:49.753Z,60.32
2023-01-22T16:49:20.322Z,60.37
2023-01-22T16:51:50.794Z,60.16
2023-01-22T16:54:24.953Z,60.35
2023-01-22T16:56:51.874Z,60.14
2023-01-22T16:59:18.832Z,60.02
2023-01-22T17:01:46.329Z,59.98
2023-01-22T17:04:13.867Z,60.24
2023-01-22T17:06:48.750Z,60.18
2023-01-22T17:09:32.355Z,59.96
2023-01-22T17:12:02.744Z,60.13
2023-01-22T17:14:35.104Z,60.22
2023-01-22T17:17:03.963Z,59.98
2023-01-22T17:19:30.886Z,60.14
2023-01-22T17:21:59.273Z,60.02
2023-01-22T17:24:27.875Z,59.92
2023-01-22T17:26:55.453Z,60.09
2023-01-22T17:29:22.358Z,60.18
2023-01-22T17:31:49.468Z,59.78
2023-01-22T17:34:16.764Z,59.85
2023-01-22T17:36:43.645Z,59.92
2023-01-22T17:39:16.006Z,59.98
2023-01-22T17:41:44.318Z,59.88
2023-01-22T17:44:13.025Z,59.68
2023-01-22T17:46:40.376Z,59.77
2023-01-22T17:49:07.449Z,60.03
2023-01-22T17:51:35.388Z,59.89
2023-01-22T17:54:04.190Z,59.62
2023-01-22T17:56:35.148Z,60.10
2023-01-22T17:59:05.448Z,60.07
2023-01-22T18:01:34.015Z,60.27
2023-01-22T18:04:04.867Z,59.74
2023-01-22T18:06:32.626Z,59.87
2023-01-22T18:09:00.780Z,59.79
2023-01-22T18:11:29.516Z,59.80
2023-01-22T18:14:02.913Z,59.84
2023-01-22T18:16:34.150Z,59.88
2023-01-22T18:19:03.471Z,59.99
2023-01-22T18:21:30.564Z,60.07
2023-01-22T18:23:59.857Z,59.78
2023-01-22T18:26:26.855Z,59.87
2023-01-22T18:28:57.020Z,60.08
2023-01-22T18:31:26.132Z,59.70
2023-01-22T18:33:55.843Z,59.94
2023-01-22T18:36:26.363Z,60.03
2023-01-22T18:38:53.578Z,59.60
2023-01-22T18:41:24.552Z,59.85
2023-01-22T18:44:04.036Z,59.49
2023-01-22T18:46:34.207Z,59.93
2023-01-22T18:49:10.044Z,59.72
2023-01-22T18:51:37.022Z,59.83
2023-01-22T18:54:05.330Z,59.61
2023-01-22T18:56:32.478Z,59.63
2023-01-22T18:58:59.938Z,59.42
2023-01-22T19:01:31.324Z,59.69
2023-01-22T19:04:01.483Z,59.46
2023-01-22T19:06:37.002Z,59.30
2023-01-22T19:09:08.916Z,59.33
2023-01-22T19:11:40.587Z,59.50
2023-01-22T19:14:09.144Z,59.74
2023-01-22T19:16:37.520Z,59.71
2023-01-22T19:19:11.146Z,59.71
2023-01-22T19:21:40.566Z,59.60
2023-01-22T19:24:08.833Z,59.41
2023-01-22T19:26:38.170Z,59.41
2023-01-22T19:29:12.716Z,59.56
2023-01-22T19:31:47.082Z,59.48
2023-01-22T19:34:23.179Z,59.46
2023-01-22T19:36:57.139Z,59.25
2023-01-22T19:39:25.872Z,59.57
2023-01-22T19:41:52.972Z,59.38
2023-01-22T19:44:20.058Z,59.46
2023-01-22T19:46:46.999Z,59.63
2023-01-22T19:49:14.026Z,59.68
2023-01-22T19:51:41.733Z,59.60
2023-01-22T19:54:10.195Z,59.44
2023-01-22T19:56:38.962Z,59.25
2023-01-22T19:59:17.688Z,59.21
2023-01-22T20:01:46.048Z,59.48
2023-01-22T20:04:26.744Z,59.38
2023-01-22T20:07:02.083Z,59.48
2023-01-22T20:09:30.369Z,59.38
2023-01-22T20:11:58.578Z,59.88
2023-01-22T20:14:41.252Z,60.24
2023-01-22T20:17:08.146Z,60.13
2023-01-22T20:19:38.094Z,59.88
2023-01-22T20:22:07.009Z,59.67
2023-01-22T20:24:34.728Z,60.03
2023-01-22T20:27:01.676Z,60.06
2023-01-22T20:29:28.692Z,59.93
2023-01-22T20:31:56.704Z,59.79
2023-01-22T20:34:23.653Z,59.92
2023-01-22T20:36:51.123Z,59.83
2023-01-22T20:39:19.673Z,59.68
2023-01-22T20:41:47.265Z,59.75
2023-01-22T20:44:14.835Z,59.58
2023-01-22T20:46:44.323Z,59.69
2023-01-22T20:49:12.293Z,59.84
2023-01-22T20:51:39.964Z,60.03
2023-01-22T20:54:07.129Z,60.14
2023-01-22T20:56:35.509Z,60.41
2023-01-22T20:59:07.599Z,60.34
2023-01-22T21:01:35.538Z,59.95
2023-01-22T21:04:02.807Z,60.07
2023-01-22T21:06:33.527Z,60.24
2023-01-22T21:09:01.330Z,60.28
2023-01-22T21:11:32.956Z,60.12
2023-01-22T21:14:01.684Z,60.25
2023-01-22T21:16:37.653Z,60.32
2023-01-22T21:19:18.680Z,60.53
2023-01-22T21:21:46.723Z,60.14
2023-01-22T21:24:13.912Z,60.26
2023-01-22T21:26:41.154Z,60.38
2023-01-22T21:29:15.999Z,60.25
2023-01-22T21:31:44.154Z,60.15
2023-01-22T21:34:11.850Z,60.62
2023-01-22T21:36:42.645Z,60.34
2023-01-22T21:39:14.742Z,60.74
2023-01-22T21:41:42.180Z,60.47
2023-01-22T21:44:31.017Z,60.84
2023-01-22T21:46:58.023Z,60.72
2023-01-22T21:49:25.082Z,60.84
2023-01-22T21:52:09.360Z,61.01
2023-01-22T21:54:39.867Z,60.89
2023-01-22T21:57:08.442Z,60.71
2023-01-22T21:59:36.864Z,60.88
2023-01-22T22:02:05.042Z,60.86
2023-01-22T22:04:31.979Z,60.83
2023-01-22T22:06:58.873Z,60.73
2023-01-22T22:09:27.740Z,60.86
2023-01-22T22:11:59.447Z,60.92
2023-01-22T22:14:27.245Z,61.34
2023-01-22T22:16:54.431Z,61.23
2023-01-22T22:19:22.504Z,61.34
2023-01-22T22:21:51.033Z,61.32
2023-01-22T22:24:19.176Z,61.05
2023-01-22T22:26:46.059Z,61.07
2023-01-22T22:29:12.996Z,61.11
2023-01-22T22:31:40.256Z,61.17
2023-01-22T22:34:07.373Z,61.21
2023-01-22T22:36:35.667Z,61.17
2023-01-22T22:39:03.416Z,61.27
2023-01-22T22:41:33.716Z,60.90
2023-01-22T22:44:00.781Z,61.11
2023-01-22T22:46:31.316Z,60.93
2023-01-22T22:49:00.892Z,60.87
2023-01-22T22:51:37.397Z,61.01
2023-01-22T22:54:10.036Z,60.87
2023-01-22T22:56:37.012Z,60.93
2023-01-22T22:59:05.169Z,61.52
2023-01-22T23:01:33.178Z,61.94
2023-01-22T23:04:01.151Z,62.22
2023-01-22T23:06:31.319Z,62.46
2023-01-22T23:09:13.187Z,63.01
2023-01-22T23:11:40.391Z,62.51
2023-01-22T23:14:07.777Z,62.98
2023-01-22T23:16:41.745Z,62.88
2023-01-22T23:19:17.246Z,62.95
2023-01-22T23:21:45.213Z,62.52
2023-01-22T23:24:14.114Z,62.60
2023-01-22T23:26:43.241Z,62.39
2023-01-22T23:29:13.740Z,62.45
2023-01-22T23:31:41.244Z,62.73
2023-01-22T23:34:12.781Z,62.40
2023-01-22T23:36:43.608Z,62.29
2023-01-22T23:39:12.274Z,62.38
2023-01-22T23:41:39.198Z,62.23
2023-01-22T23:44:06.319Z,62.27
2023-01-22T23:46:34.967Z,61.71
2023-01-22T23:49:03.099Z,61.77
2023-01-22T23:51:30.449Z,62.20
2023-01-22T23:53:57.960Z,62.06
2023-01-22T23:56:30.143Z,61.96
2023-01-22T23:58:57.368Z,61.58
